Time;durP1;ratioP1;P1;durP2;ratioP2;P2;SDS_P1;SDS_P2;PMS_P1;PMS_P2;Temp;Humidity;BMP_temperature;BMP_pressure;BME280_temperature;BME280_humidity;BME280_pressure;Samples;Min_cycle;Max_cycle;Signal;HPM_P1;HPM_P2
2023/09/12 00:00:47;;;;;;;28.70;21.70;;;21.60;95.80;;;;;;4993673;28;20057;-84
2023/09/12 00:03:12;;;;;;;31.45;23.75;;;21.60;95.80;;;;;;4993407;28;20072;-83
2023/09/12 00:05:38;;;;;;;30.73;23.30;;;21.70;95.90;;;;;;4993542;28;20030;-84
2023/09/12 00:08:04;;;;;;;29.90;22.73;;;21.60;95.90;;;;;;4975968;28;20022;-84
2023/09/12 00:10:30;;;;;;;29.23;23.48;;;21.60;96.00;;;;;;4993034;28;20065;-84
2023/09/12 00:12:55;;;;;;;28.02;23.17;;;21.60;96.10;;;;;;4993269;28;20027;-84
2023/09/12 00:15:21;;;;;;;31.52;23.88;;;21.60;96.20;;;;;;4975676;28;20135;-84
2023/09/12 00:17:49;;;;;;;33.65;24.90;;;21.60;96.20;;;;;;4993202;28;20085;-84
2023/09/12 00:20:15;;;;;;;30.38;23.42;;;21.60;96.20;;;;;;4975806;28;20026;-84
2023/09/12 00:22:40;;;;;;;32.75;24.67;;;21.60;96.20;;;;;;4992992;28;20109;-85
2023/09/12 00:25:06;;;;;;;32.05;25.40;;;21.60;96.20;;;;;;4993246;28;20026;-84
2023/09/12 00:27:32;;;;;;;33.67;25.45;;;21.50;96.30;;;;;;4975434;28;20485;-84
2023/09/12 00:29:57;;;;;;;35.55;26.83;;;21.50;96.30;;;;;;4992734;28;20029;-84
2023/09/12 00:32:23;;;;;;;32.65;25.20;;;21.40;96.30;;;;;;4992843;28;20477;-84
2023/09/12 00:34:49;;;;;;;30.80;24.33;;;21.50;96.50;;;;;;4992929;28;20448;-83
2023/09/12 00:37:14;;;;;;;31.98;25.33;;;21.40;96.50;;;;;;4975389;28;20089;-84
2023/09/12 00:39:40;;;;;;;33.13;26.02;;;21.40;96.60;;;;;;4975439;28;20026;-83
2023/09/12 00:42:07;;;;;;;32.53;24.88;;;21.40;96.60;;;;;;4975345;28;20026;-84
2023/09/12 00:44:33;;;;;;;34.10;26.80;;;21.40;96.70;;;;;;4992955;28;20389;-83
2023/09/12 00:47:00;;;;;;;37.50;27.70;;;21.30;96.80;;;;;;4975218;28;20030;-84
2023/09/12 00:49:27;;;;;;;38.13;29.45;;;21.40;96.90;;;;;;4993026;28;20078;-84
2023/09/12 00:51:56;;;;;;;38.35;28.67;;;21.30;97.20;;;;;;4992067;28;20045;-84
2023/09/12 00:54:21;;;;;;;37.88;28.35;;;21.30;97.10;;;;;;4975740;28;20029;-84
2023/09/12 00:56:47;;;;;;;36.25;28.33;;;21.30;97.20;;;;;;4975464;28;20031;-83
2023/09/12 00:59:16;;;;;;;40.95;28.20;;;21.30;97.30;;;;;;4992758;28;20037;-84
2023/09/12 01:01:42;;;;;;;34.63;26.50;;;21.30;97.30;;;;;;4992866;28;20037;-85
2023/09/12 01:04:09;;;;;;;36.25;27.42;;;21.30;97.30;;;;;;4992502;28;20105;-83
2023/09/12 01:06:34;;;;;;;32.47;25.65;;;21.30;97.40;;;;;;4992577;28;20122;-83
2023/09/12 01:09:00;;;;;;;33.38;26.50;;;21.20;97.40;;;;;;4975228;28;20101;-82
2023/09/12 01:11:28;;;;;;;36.42;25.95;;;21.30;97.50;;;;;;4992470;28;20536;-83
2023/09/12 01:13:53;;;;;;;33.65;26.67;;;21.30;97.50;;;;;;4975132;28;20073;-82
2023/09/12 01:16:19;;;;;;;34.72;26.83;;;21.20;97.50;;;;;;4992435;28;20031;-82
2023/09/12 01:18:45;;;;;;;36.05;27.65;;;21.20;97.50;;;;;;4992731;28;20034;-82
2023/09/12 01:21:48;;;;;;;34.47;27.10;;;21.20;97.60;;;;;;4992623;28;20022;-83
2023/09/12 01:24:53;;;;;;;34.67;25.70;;;21.10;97.70;;;;;;4991984;28;20050;-82
2023/09/12 01:27:31;;;;;;;34.80;26.00;;;21.00;97.80;;;;;;4964181;28;20038;-83
2023/09/12 01:30:00;;;;;;;36.15;25.83;;;21.00;97.90;;;;;;4992137;28;20022;-83
2023/09/12 01:32:26;;;;;;;32.78;25.00;;;21.00;97.90;;;;;;4992509;28;20030;-83
2023/09/12 01:34:52;;;;;;;38.13;27.63;;;20.90;97.90;;;;;;4992212;28;20077;-83
2023/09/12 01:37:18;;;;;;;35.75;27.17;;;20.80;97.90;;;;;;4992410;28;20060;-83
2023/09/12 01:39:43;;;;;;;37.25;28.25;;;20.80;98.00;;;;;;4992073;28;20027;-83
2023/09/12 01:42:14;;;;;;;37.03;27.30;;;20.90;98.00;;;;;;4992258;28;20089;-82
2023/09/12 01:44:42;;;;;;;34.83;26.13;;;20.80;98.10;;;;;;4992220;28;20077;-83
2023/09/12 01:47:10;;;;;;;36.33;26.10;;;20.80;98.20;;;;;;4991958;28;20030;-84
2023/09/12 01:49:37;;;;;;;33.88;26.67;;;20.70;98.20;;;;;;4991853;28;20022;-82
2023/09/12 01:52:03;;;;;;;34.85;25.30;;;20.80;98.30;;;;;;4974692;28;20049;-83
2023/09/12 01:54:29;;;;;;;34.58;26.75;;;20.60;98.40;;;;;;4991945;28;20527;-82
2023/09/12 01:56:57;;;;;;;38.22;26.67;;;20.80;98.60;;;;;;4992565;28;20039;-82
2023/09/12 01:59:24;;;;;;;34.78;26.60;;;20.60;98.60;;;;;;4988932;28;20026;-82
2023/09/12 02:01:50;;;;;;;37.22;28.33;;;20.60;98.70;;;;;;4972608;28;20042;-83
2023/09/12 02:04:15;;;;;;;36.60;28.30;;;20.60;98.70;;;;;;4975388;28;20114;-83
2023/09/12 02:06:41;;;;;;;36.20;26.70;;;20.60;98.70;;;;;;4974888;28;20117;-82
2023/09/12 02:09:06;;;;;;;39.42;28.33;;;20.50;98.70;;;;;;4975545;28;20023;-83
2023/09/12 02:11:32;;;;;;;35.00;27.02;;;20.70;98.90;;;;;;4975577;28;20039;-82
2023/09/12 02:13:58;;;;;;;36.53;27.20;;;20.50;98.90;;;;;;4958825;28;20089;-82
2023/09/12 02:16:23;;;;;;;36.60;26.35;;;20.50;98.90;;;;;;4976418;28;20070;-82
2023/09/12 02:18:49;;;;;;;35.60;25.23;;;20.50;99.00;;;;;;4976045;28;20085;-83
2023/09/12 02:21:15;;;;;;;38.20;26.00;;;20.50;99.10;;;;;;4977378;28;20057;-80
2023/09/12 02:23:41;;;;;;;37.33;26.42;;;20.40;99.20;;;;;;4969993;28;20055;-82
2023/09/12 02:26:07;;;;;;;34.10;25.98;;;20.50;99.30;;;;;;4986992;28;20027;-82
2023/09/12 02:28:33;;;;;;;32.80;25.88;;;20.40;99.30;;;;;;4968404;28;20078;-81
2023/09/12 02:30:58;;;;;;;34.58;25.83;;;20.30;99.30;;;;;;4986317;28;20089;-82
2023/09/12 02:33:24;;;;;;;35.30;25.45;;;20.30;99.40;;;;;;4982278;28;20026;-83
2023/09/12 02:35:50;;;;;;;34.50;23.55;;;20.30;99.40;;;;;;4984684;28;20062;-81
2023/09/12 02:38:17;;;;;;;36.63;23.25;;;20.20;99.40;;;;;;4962720;28;20027;-82
2023/09/12 02:40:43;;;;;;;27.52;22.27;;;20.20;99.40;;;;;;4975858;28;20054;-82
2023/09/12 02:43:08;;;;;;;30.08;21.65;;;20.10;99.40;;;;;;4975924;28;20117;-82
2023/09/12 02:45:34;;;;;;;32.60;23.23;;;20.10;99.40;;;;;;4975983;28;20473;-83
2023/09/12 02:47:59;;;;;;;30.08;23.45;;;20.00;99.50;;;;;;4975554;28;20062;-83
2023/09/12 02:50:25;;;;;;;33.17;22.58;;;19.90;99.50;;;;;;4957879;28;20519;-82
2023/09/12 02:52:50;;;;;;;31.40;22.70;;;20.00;99.60;;;;;;4958058;28;20027;-83
2023/09/12 02:55:16;;;;;;;30.70;23.10;;;19.90;99.60;;;;;;4975522;28;20027;-82
2023/09/12 02:57:42;;;;;;;30.92;22.85;;;19.90;99.70;;;;;;4974995;28;20484;-83
2023/09/12 03:00:09;;;;;;;28.35;21.90;;;19.80;99.70;;;;;;4957819;28;20061;-83
2023/09/12 03:02:34;;;;;;;28.45;22.45;;;19.80;99.80;;;;;;4975293;28;20461;-83
2023/09/12 03:05:01;;;;;;;30.95;23.25;;;19.80;99.90;;;;;;4974992;28;20058;-84
2023/09/12 03:07:27;;;;;;;28.63;22.15;;;19.80;99.90;;;;;;4975290;28;20029;-83
2023/09/12 03:09:52;;;;;;;31.33;23.85;;;19.80;99.90;;;;;;4974891;28;20396;-83
2023/09/12 03:12:18;;;;;;;32.97;23.67;;;19.80;99.90;;;;;;4974846;28;20026;-82
2023/09/12 03:14:44;;;;;;;31.67;23.73;;;19.80;99.90;;;;;;4974287;28;20027;-83
2023/09/12 03:17:09;;;;;;;35.10;24.95;;;19.80;99.90;;;;;;4957331;28;20712;-83
2023/09/12 03:19:35;;;;;;;30.80;23.50;;;19.80;99.90;;;;;;4957806;28;20118;-82
2023/09/12 03:22:00;;;;;;;32.25;24.10;;;19.80;99.90;;;;;;4974568;28;20093;-83
2023/09/12 03:24:28;;;;;;;34.28;24.75;;;19.80;99.90;;;;;;4957457;28;20424;-83
2023/09/12 03:26:54;;;;;;;34.33;24.42;;;19.80;99.90;;;;;;4974888;28;20031;-82
2023/09/12 03:29:19;;;;;;;32.90;24.05;;;19.80;99.90;;;;;;4974672;28;20113;-83
2023/09/12 03:31:45;;;;;;;32.53;22.38;;;19.80;99.90;;;;;;4974688;28;20456;-83
2023/09/12 03:34:11;;;;;;;30.10;23.67;;;19.80;99.90;;;;;;4974557;28;20023;-83
2023/09/12 03:36:36;;;;;;;29.30;22.83;;;19.70;99.90;;;;;;4974222;28;20105;-84
2023/09/12 03:39:05;;;;;;;31.17;23.17;;;19.80;99.90;;;;;;4974429;28;20031;-83
2023/09/12 03:41:30;;;;;;;33.88;24.48;;;19.80;99.90;;;;;;4956971;28;20533;-84
2023/09/12 03:43:56;;;;;;;39.10;25.75;;;19.80;99.90;;;;;;4956942;28;20113;-83
2023/09/12 03:46:22;;;;;;;29.33;22.23;;;19.80;99.90;;;;;;4956862;28;20026;-82
2023/09/12 03:48:47;;;;;;;27.00;21.50;;;19.80;99.90;;;;;;4974402;28;20033;-83
2023/09/12 03:51:13;;;;;;;29.05;21.15;;;19.80;99.90;;;;;;4956845;28;20043;-83
2023/09/12 03:53:39;;;;;;;30.27;22.05;;;19.80;99.90;;;;;;4974081;28;20085;-83
2023/09/12 03:56:05;;;;;;;30.38;23.33;;;19.70;99.90;;;;;;4974157;28;20503;-83
2023/09/12 03:58:30;;;;;;;30.63;21.90;;;19.80;99.90;;;;;;4957050;28;20022;-83
2023/09/12 04:00:56;;;;;;;27.55;21.00;;;19.80;99.90;;;;;;4956783;28;20054;-83
2023/09/12 04:03:22;;;;;;;25.17;19.88;;;19.80;99.90;;;;;;4957452;28;20057;-83
2023/09/12 04:05:47;;;;;;;21.73;17.67;;;19.70;99.90;;;;;;4974166;28;20038;-83
2023/09/12 04:08:13;;;;;;;19.10;16.38;;;19.80;99.90;;;;;;4973850;28;20030;-84
2023/09/12 04:10:39;;;;;;;19.08;16.85;;;19.70;99.90;;;;;;4974069;28;20555;-82
2023/09/12 04:13:04;;;;;;;24.67;14.43;;;19.70;99.90;;;;;;4974048;28;20058;-84
2023/09/12 04:15:30;;;;;;;26.95;14.13;;;19.60;99.90;;;;;;4974240;28;20101;-84
2023/09/12 04:17:56;;;;;;;32.70;16.63;;;19.60;99.90;;;;;;4974078;28;20027;-82
2023/09/12 04:20:21;;;;;;;40.03;18.25;;;19.50;99.90;;;;;;4956518;28;20537;-83
2023/09/12 04:22:47;;;;;;;44.22;18.98;;;19.40;99.90;;;;;;4973673;28;20473;-84
2023/09/12 04:25:12;;;;;;;40.72;17.77;;;19.40;99.90;;;;;;4973711;28;20105;-82
2023/09/12 04:27:38;;;;;;;28.13;18.13;;;19.30;99.90;;;;;;4956388;28;20073;-83
2023/09/12 04:30:04;;;;;;;43.85;20.30;;;19.30;99.90;;;;;;4973913;28;20023;-83
2023/09/12 04:32:30;;;;;;;38.10;20.52;;;19.30;99.90;;;;;;4973922;28;20441;-82
2023/09/12 04:34:55;;;;;;;41.03;21.77;;;19.20;99.90;;;;;;4973846;28;20110;-81
2023/09/12 04:37:21;;;;;;;45.33;21.55;;;19.30;99.90;;;;;;4973573;28;20496;-83
2023/09/12 04:39:46;;;;;;;33.30;23.52;;;19.30;99.90;;;;;;4973426;28;20065;-82
2023/09/12 04:42:12;;;;;;;38.13;24.88;;;19.30;99.90;;;;;;4956243;28;20034;-84
2023/09/12 04:44:41;;;;;;;40.50;25.83;;;19.30;99.90;;;;;;4973652;28;20102;-84
2023/09/12 04:47:08;;;;;;;47.55;25.85;;;19.30;99.90;;;;;;4955727;28;20121;-84
2023/09/12 04:49:34;;;;;;;51.22;27.48;;;19.30;99.90;;;;;;4955971;28;20050;-83
2023/09/12 04:51:59;;;;;;;31.30;24.42;;;19.40;99.90;;;;;;4955872;28;20038;-85
2023/09/12 04:54:25;;;;;;;28.65;22.83;;;19.30;99.90;;;;;;4973057;28;20103;-84
2023/09/12 04:56:51;;;;;;;28.08;23.38;;;19.40;99.90;;;;;;4973344;28;20084;-85
2023/09/12 04:59:16;;;;;;;26.98;21.30;;;19.40;99.90;;;;;;4971968;28;20027;-87
2023/09/12 05:01:42;;;;;;;23.80;20.48;;;19.40;99.90;;;;;;4973154;28;20532;-86
2023/09/12 05:04:09;;;;;;;29.98;20.70;;;19.50;99.90;;;;;;4971860;28;20165;-86
2023/09/12 05:06:35;;;;;;;24.42;19.90;;;19.50;99.90;;;;;;4972959;28;20496;-85
2023/09/12 05:09:01;;;;;;;27.45;18.95;;;19.50;99.90;;;;;;4973107;28;20034;-86
2023/09/12 05:11:26;;;;;;;24.35;18.48;;;19.60;99.90;;;;;;4955961;28;20035;-86
2023/09/12 05:13:52;;;;;;;25.05;20.65;;;19.40;99.90;;;;;;4977538;28;20030;-86
2023/09/12 05:16:18;;;;;;;23.75;19.75;;;19.50;99.90;;;;;;4992494;28;20037;-86
2023/09/12 05:18:43;;;;;;;30.33;21.85;;;19.60;99.90;;;;;;4980947;28;20019;-84
2023/09/12 05:21:09;;;;;;;32.50;20.65;;;19.60;99.90;;;;;;4971753;28;20027;-85
2023/09/12 05:23:35;;;;;;;30.33;21.40;;;19.60;99.90;;;;;;4971377;28;20083;-83
2023/09/12 05:26:01;;;;;;;32.95;23.52;;;19.60;99.90;;;;;;4971725;28;20062;-84
2023/09/12 05:28:26;;;;;;;35.00;24.60;;;19.70;99.90;;;;;;4971720;28;20030;-84
2023/09/12 05:30:52;;;;;;;37.35;24.65;;;19.60;99.90;;;;;;4974347;28;20046;-85
2023/09/12 05:33:18;;;;;;;35.55;23.73;;;19.70;99.90;;;;;;4992337;28;20026;-84
2023/09/12 05:35:44;;;;;;;34.50;23.95;;;19.70;99.90;;;;;;4991550;28;20037;-85
2023/09/12 05:38:10;;;;;;;37.58;23.08;;;19.80;99.90;;;;;;4979478;28;20065;-84
2023/09/12 05:40:36;;;;;;;34.88;24.23;;;19.70;99.90;;;;;;4981661;28;20117;-84
2023/09/12 05:43:01;;;;;;;45.30;25.45;;;19.80;99.90;;;;;;4995916;28;20466;-85
2023/09/12 05:45:30;;;;;;;40.50;26.58;;;19.80;99.90;;;;;;4996034;28;20030;-85
2023/09/12 05:47:56;;;;;;;41.95;27.42;;;19.80;99.90;;;;;;4977432;28;20033;-83
2023/09/12 05:50:23;;;;;;;46.72;29.58;;;19.80;99.90;;;;;;4977851;28;20034;-83
2023/09/12 05:52:48;;;;;;;45.40;28.85;;;19.80;99.90;;;;;;4977990;28;20373;-84
2023/09/12 05:55:14;;;;;;;49.85;31.50;;;19.80;99.90;;;;;;4996281;28;20089;-84
2023/09/12 05:57:40;;;;;;;46.47;31.95;;;19.80;99.90;;;;;;4977896;28;20451;-82
2023/09/12 06:00:09;;;;;;;42.05;30.40;;;19.90;99.90;;;;;;4977639;28;20033;-83
2023/09/12 06:02:35;;;;;;;43.53;30.98;;;19.90;99.90;;;;;;4995638;28;20027;-84
2023/09/12 06:05:01;;;;;;;43.67;30.02;;;19.90;99.90;;;;;;4994724;28;20041;-85
2023/09/12 06:07:26;;;;;;;42.47;30.13;;;19.90;99.90;;;;;;4995759;28;20077;-86
2023/09/12 06:09:52;;;;;;;46.42;31.00;;;20.00;99.90;;;;;;4995590;28;20471;-82
2023/09/12 06:12:18;;;;;;;48.72;33.05;;;19.90;99.90;;;;;;4995585;28;20034;-83
2023/09/12 06:14:43;;;;;;;46.45;30.98;;;19.90;99.90;;;;;;4977891;28;20436;-81
2023/09/12 06:17:09;;;;;;;47.15;31.40;;;20.00;99.90;;;;;;4976598;28;20497;-82
2023/09/12 06:19:34;;;;;;;42.53;29.95;;;20.00;99.90;;;;;;4995390;28;20082;-82
2023/09/12 06:22:00;;;;;;;46.53;32.70;;;20.10;99.90;;;;;;4977390;28;20019;-81
2023/09/12 06:24:26;;;;;;;48.05;32.42;;;20.10;99.90;;;;;;4995288;28;20042;-82
2023/09/12 06:26:52;;;;;;;49.25;32.70;;;20.20;99.90;;;;;;4995335;28;20034;-83
2023/09/12 06:29:17;;;;;;;52.97;33.90;;;20.20;99.90;;;;;;4976991;28;20472;-82
2023/09/12 06:31:43;;;;;;;51.30;32.47;;;20.10;99.90;;;;;;4977360;28;20034;-82
2023/09/12 06:34:09;;;;;;;47.55;34.13;;;20.20;99.90;;;;;;4994956;28;20030;-82
2023/09/12 06:36:35;;;;;;;48.05;34.88;;;20.20;99.90;;;;;;4995028;28;20089;-83
2023/09/12 06:39:03;;;;;;;50.28;34.53;;;20.30;99.90;;;;;;4995088;28;20022;-82
2023/09/12 06:41:28;;;;;;;52.13;34.70;;;20.20;99.90;;;;;;4977701;28;20080;-83
2023/09/12 06:43:56;;;;;;;51.90;34.60;;;20.20;99.90;;;;;;4977317;28;20473;-83
2023/09/12 06:46:22;;;;;;;53.28;35.33;;;20.20;99.90;;;;;;4995020;28;20117;-83
2023/09/12 06:48:50;;;;;;;49.78;33.90;;;20.30;99.90;;;;;;4993876;28;20453;-83
2023/09/12 06:51:16;;;;;;;47.28;33.55;;;20.20;99.90;;;;;;4976883;28;20035;-84
2023/09/12 06:53:41;;;;;;;48.60;35.65;;;20.20;99.90;;;;;;4994982;28;20447;-83
2023/09/12 06:56:07;;;;;;;50.30;35.13;;;20.30;99.90;;;;;;4994656;28;20101;-84
2023/09/12 06:58:33;;;;;;;51.78;35.47;;;20.30;99.90;;;;;;4994213;28;20030;-85
2023/09/12 07:01:03;;;;;;;47.30;33.10;;;20.40;99.90;;;;;;4977302;28;20120;-84
2023/09/12 07:03:30;;;;;;;47.63;33.33;;;20.50;99.90;;;;;;4994642;28;20053;-83
2023/09/12 07:05:56;;;;;;;47.95;33.90;;;20.40;99.90;;;;;;4994670;28;20030;-83
2023/09/12 07:08:21;;;;;;;49.75;34.75;;;20.50;99.90;;;;;;4994398;28;20030;-85
2023/09/12 07:10:47;;;;;;;46.88;32.50;;;20.60;99.90;;;;;;4994594;28;20081;-86
2023/09/12 07:13:12;;;;;;;49.63;34.33;;;20.60;99.90;;;;;;4994448;28;20109;-85
2023/09/12 07:15:38;;;;;;;47.95;34.78;;;20.70;99.90;;;;;;4994474;28;20124;-85
2023/09/12 07:18:06;;;;;;;47.70;35.30;;;20.70;99.90;;;;;;4977246;28;20027;-85
2023/09/12 07:20:32;;;;;;;49.03;33.75;;;20.80;99.90;;;;;;4976954;28;20030;-85
2023/09/12 07:22:57;;;;;;;44.25;31.92;;;20.90;99.90;;;;;;4976533;28;20046;-81
2023/09/12 07:25:23;;;;;;;45.97;34.35;;;20.90;99.90;;;;;;4994286;28;20022;-83
2023/09/12 07:27:50;;;;;;;44.60;33.70;;;20.90;99.90;;;;;;4994322;28;20026;-85
2023/09/12 07:30:16;;;;;;;44.63;32.92;;;21.00;99.90;;;;;;4994412;28;20030;-84
2023/09/12 07:32:41;;;;;;;52.38;34.60;;;20.90;99.90;;;;;;4994373;28;20038;-84
2023/09/12 07:35:07;;;;;;;50.08;34.53;;;21.00;99.90;;;;;;4994121;28;20030;-83
2023/09/12 07:37:33;;;;;;;47.67;33.45;;;21.00;99.90;;;;;;4993938;28;20037;-85
2023/09/12 07:39:58;;;;;;;44.00;31.98;;;21.00;99.90;;;;;;4993655;28;20026;-86
2023/09/12 07:42:24;;;;;;;42.92;32.42;;;21.10;99.90;;;;;;4993998;28;20082;-85
2023/09/12 07:44:50;;;;;;;47.40;35.05;;;21.20;99.90;;;;;;4994000;28;20026;-86
2023/09/12 07:47:16;;;;;;;43.33;33.25;;;21.20;99.90;;;;;;4993781;28;20050;-86
2023/09/12 07:49:41;;;;;;;43.65;32.30;;;21.20;99.90;;;;;;4994000;28;20066;-85
2023/09/12 07:52:07;;;;;;;47.47;34.10;;;21.20;99.90;;;;;;4993733;28;20065;-84
2023/09/12 07:54:33;;;;;;;49.90;36.67;;;21.30;99.90;;;;;;4976008;28;20069;-84
2023/09/12 07:56:58;;;;;;;47.28;33.97;;;21.30;99.90;;;;;;4976023;28;20390;-83
2023/09/12 07:59:24;;;;;;;50.10;37.50;;;21.40;99.90;;;;;;4976026;28;20029;-83
2023/09/12 08:01:51;;;;;;;50.50;35.80;;;21.40;99.90;;;;;;4993484;28;20027;-84
2023/09/12 08:04:17;;;;;;;47.60;34.58;;;21.40;99.90;;;;;;4993711;28;20022;-84
2023/09/12 08:06:43;;;;;;;49.85;36.28;;;21.40;99.90;;;;;;4993897;28;20467;-84
2023/09/12 08:09:10;;;;;;;48.78;35.47;;;21.40;99.90;;;;;;4975842;28;20046;-83
2023/09/12 08:11:35;;;;;;;48.42;34.17;;;21.40;99.90;;;;;;4993115;28;20038;-83
2023/09/12 08:14:01;;;;;;;45.78;34.15;;;21.50;99.90;;;;;;4993787;28;20025;-84
2023/09/12 08:16:26;;;;;;;53.45;35.35;;;21.50;99.90;;;;;;4993618;28;20026;-83
2023/09/12 08:18:52;;;;;;;50.13;36.55;;;21.50;99.90;;;;;;4993092;28;20027;-83
2023/09/12 08:21:17;;;;;;;48.10;34.22;;;21.60;99.90;;;;;;4993604;28;20037;-85
2023/09/12 08:23:43;;;;;;;45.78;34.28;;;21.50;99.90;;;;;;4993088;28;20050;-83
2023/09/12 08:26:10;;;;;;;45.83;34.55;;;21.50;99.90;;;;;;4993367;28;20038;-83
2023/09/12 08:28:35;;;;;;;51.67;36.67;;;21.50;99.90;;;;;;4993137;28;20029;-84
2023/09/12 08:31:01;;;;;;;45.15;33.30;;;21.50;99.90;;;;;;4992905;28;20046;-84
2023/09/12 08:33:26;;;;;;;46.83;34.22;;;21.50;99.90;;;;;;4975819;28;20068;-83
2023/09/12 08:35:52;;;;;;;46.22;33.25;;;21.50;99.90;;;;;;4992671;28;20431;-84
2023/09/12 08:38:17;;;;;;;41.67;30.92;;;21.50;99.90;;;;;;4993015;28;20512;-84
2023/09/12 08:40:50;;;;;;;48.78;34.85;;;21.60;99.90;;;;;;4992809;28;20037;-83
2023/09/12 08:43:17;;;;;;;48.13;33.50;;;21.60;99.90;;;;;;4993112;28;20172;-83
2023/09/12 08:45:46;;;;;;;41.42;31.17;;;21.60;99.90;;;;;;4993080;28;20473;-81
2023/09/12 08:48:12;;;;;;;40.03;29.42;;;21.60;99.90;;;;;;4992709;28;20076;-82
2023/09/12 08:50:38;;;;;;;41.03;31.73;;;21.70;99.90;;;;;;4992643;28;20192;-82
2023/09/12 08:53:04;;;;;;;39.20;28.63;;;21.80;99.80;;;;;;4992845;28;20188;-82
2023/09/12 08:55:33;;;;;;;36.92;25.98;;;21.80;99.70;;;;;;4992722;28;20599;-80
2023/09/12 08:57:59;;;;;;;33.72;24.90;;;21.90;99.60;;;;;;4992791;28;20045;-83
2023/09/12 09:00:27;;;;;;;32.30;23.58;;;21.90;99.40;;;;;;4975114;28;20036;-82
2023/09/12 09:02:53;;;;;;;33.75;25.73;;;22.00;99.40;;;;;;4975323;28;20019;-82
2023/09/12 09:05:20;;;;;;;33.58;23.77;;;22.10;99.40;;;;;;4975620;28;20473;-84
2023/09/12 09:07:46;;;;;;;29.25;21.52;;;22.20;99.30;;;;;;4974988;28;20113;-82
2023/09/12 09:10:17;;;;;;;28.10;20.88;;;22.30;99.20;;;;;;4975412;28;20084;-83
2023/09/12 09:12:45;;;;;;;28.77;21.83;;;22.30;98.80;;;;;;4995279;28;20030;-83
2023/09/12 09:15:41;;;;;;;23.42;18.17;;;22.30;98.60;;;;;;4998045;28;20041;-84
2023/09/12 09:18:07;;;;;;;29.85;20.02;;;22.50;98.40;;;;;;4982222;28;20034;-83
2023/09/12 09:20:37;;;;;;;25.55;20.33;;;22.60;98.20;;;;;;5000514;28;20036;-82
2023/09/12 09:23:10;;;;;;;26.98;20.00;;;22.70;98.00;;;;;;4983738;28;20161;-84
2023/09/12 09:25:40;;;;;;;26.75;18.85;;;22.80;98.00;;;;;;5000850;28;20403;-83
2023/09/12 09:28:22;;;;;;;24.75;17.95;;;22.90;97.90;;;;;;4995837;28;20063;-82
2023/09/12 09:30:50;;;;;;;25.02;17.55;;;23.10;97.60;;;;;;5015828;28;20046;-81
2023/09/12 09:33:16;;;;;;;21.27;16.10;;;23.20;97.50;;;;;;5017513;28;20041;-83
2023/09/12 09:35:42;;;;;;;21.92;17.05;;;23.30;97.20;;;;;;5017396;28;20034;-84
2023/09/12 09:38:09;;;;;;;23.85;17.27;;;23.30;96.50;;;;;;5000635;28;20464;-83
2023/09/12 09:40:36;;;;;;;21.30;14.70;;;23.40;96.00;;;;;;5017871;28;20038;-82
2023/09/12 09:43:03;;;;;;;21.35;15.65;;;23.50;95.80;;;;;;5017385;28;20100;-85
2023/09/12 09:45:32;;;;;;;19.35;13.57;;;23.50;95.30;;;;;;4995992;28;20174;-84
2023/09/12 09:48:08;;;;;;;16.13;12.30;;;23.50;95.00;;;;;;5004139;28;20485;-84
2023/09/12 09:50:37;;;;;;;19.13;12.35;;;23.60;94.80;;;;;;4982013;28;20517;-84
2023/09/12 09:53:05;;;;;;;15.98;10.65;;;23.70;94.50;;;;;;4997738;28;20030;-81
2023/09/12 09:55:32;;;;;;;16.60;11.43;;;23.80;94.30;;;;;;4999215;28;20027;-83
2023/09/12 09:57:57;;;;;;;16.23;11.02;;;23.80;94.00;;;;;;4984205;28;20061;-82
2023/09/12 10:00:24;;;;;;;12.73;9.68;;;24.00;93.70;;;;;;4995602;28;20034;-82
2023/09/12 10:02:52;;;;;;;15.38;9.55;;;24.10;93.40;;;;;;4960483;28;20437;-80
2023/09/12 10:05:18;;;;;;;11.73;7.40;;;24.30;92.80;;;;;;4991830;28;20576;-85
2023/09/12 10:07:47;;;;;;;11.80;8.07;;;24.50;92.30;;;;;;4995266;28;20033;-86
2023/09/12 10:10:14;;;;;;;13.98;10.52;;;24.80;91.60;;;;;;4996128;28;20038;-85
2023/09/12 10:12:51;;;;;;;12.95;10.05;;;24.90;90.90;;;;;;4995162;28;20026;-86
2023/09/12 10:15:19;;;;;;;12.48;9.30;;;24.80;90.40;;;;;;4994420;28;20077;-83
2023/09/12 10:17:50;;;;;;;12.70;9.93;;;24.80;90.30;;;;;;4994646;28;20072;-83
2023/09/12 10:20:21;;;;;;;12.35;8.70;;;24.90;90.50;;;;;;4995903;28;20053;-85
2023/09/12 10:22:59;;;;;;;12.85;9.07;;;25.10;90.40;;;;;;4994406;28;20044;-84
2023/09/12 10:25:26;;;;;;;11.77;7.45;;;25.40;90.40;;;;;;4995568;28;20084;-84
2023/09/12 10:27:53;;;;;;;7.38;5.35;;;26.10;90.70;;;;;;4996067;28;20033;-83
2023/09/12 10:30:21;;;;;;;9.77;6.78;;;26.80;90.60;;;;;;4995438;28;20038;-86
2023/09/12 10:32:48;;;;;;;8.18;6.25;;;27.60;90.00;;;;;;4995065;28;20053;-84
2023/09/12 10:35:14;;;;;;;8.27;5.40;;;28.20;88.50;;;;;;4995358;28;20056;-86
2023/09/12 10:37:42;;;;;;;8.75;5.95;;;28.70;86.40;;;;;;5010247;28;20022;-85
2023/09/12 10:40:09;;;;;;;8.93;6.25;;;29.10;82.80;;;;;;4995572;28;20026;-88
2023/09/12 10:42:35;;;;;;;8.18;5.65;;;29.40;80.20;;;;;;4994018;28;20093;-87
2023/09/12 10:45:03;;;;;;;10.18;5.30;;;29.50;78.00;;;;;;4995252;28;20121;-87
2023/09/12 10:47:29;;;;;;;8.50;5.65;;;29.50;76.20;;;;;;4995903;28;20096;-88
2023/09/12 10:49:56;;;;;;;8.70;5.65;;;29.70;74.90;;;;;;4995969;28;20121;-88
2023/09/12 10:52:29;;;;;;;9.07;5.63;;;29.80;73.30;;;;;;4994510;28;20514;-87
2023/09/12 10:54:55;;;;;;;7.93;5.32;;;30.10;72.60;;;;;;4995650;28;20441;-88
2023/09/12 10:57:21;;;;;;;6.45;4.63;;;30.70;72.70;;;;;;4995367;28;20064;-87
2023/09/12 11:00:08;;;;;;;6.60;5.00;;;31.30;71.80;;;;;;4993593;28;20054;-87
2023/09/12 11:02:35;;;;;;;6.68;5.03;;;32.00;69.00;;;;;;4993875;28;20034;-90
2023/09/12 11:05:05;;;;;;;7.30;5.32;;;32.70;68.90;;;;;;4994516;28;20023;-88
2023/09/12 11:07:40;;;;;;;8.30;5.78;;;33.30;66.90;;;;;;4993812;28;20022;-88
2023/09/12 11:10:18;;;;;;;7.65;4.93;;;33.90;64.40;;;;;;4994509;28;20117;-89
2023/09/12 11:12:44;;;;;;;7.43;5.30;;;34.50;63.00;;;;;;4994877;28;20038;-90
2023/09/12 11:15:11;;;;;;;8.10;5.88;;;34.90;61.80;;;;;;4996239;28;20030;-90
2023/09/12 11:17:44;;;;;;;7.43;5.28;;;35.00;59.90;;;;;;4997090;28;20065;-90
2023/09/12 11:20:11;;;;;;;6.90;5.43;;;34.90;58.60;;;;;;4994233;28;20428;-89
2023/09/12 11:22:45;;;;;;;6.50;4.93;;;35.00;58.30;;;;;;4994366;28;20019;-87
2023/09/12 11:25:19;;;;;;;10.57;6.25;;;35.10;57.60;;;;;;4994072;28;20034;-89
2023/09/12 11:27:52;;;;;;;8.27;5.45;;;35.30;56.30;;;;;;4995193;28;20037;-88
2023/09/12 11:30:19;;;;;;;5.47;4.35;;;35.40;56.10;;;;;;4994987;28;20035;-90
2023/09/12 11:32:47;;;;;;;8.00;4.47;;;35.70;55.80;;;;;;4995939;28;20034;-90
2023/09/12 11:35:14;;;;;;;8.63;4.65;;;36.00;55.00;;;;;;4994706;28;20026;-88
2023/09/12 11:37:49;;;;;;;7.72;5.00;;;36.40;54.10;;;;;;4993823;28;20117;-88
2023/09/12 11:40:16;;;;;;;6.22;4.68;;;36.50;52.10;;;;;;4995751;28;20034;-91
2023/09/12 11:42:42;;;;;;;5.40;3.70;;;36.60;52.00;;;;;;4995419;28;20029;-89
2023/09/12 11:45:09;;;;;;;6.47;4.38;;;36.70;51.60;;;;;;4993970;28;20076;-85
2023/09/12 11:47:39;;;;;;;7.38;5.20;;;37.10;50.90;;;;;;4995580;28;20034;-89
2023/09/12 11:50:05;;;;;;;9.20;4.75;;;37.50;50.50;;;;;;4993481;28;20026;-87
2023/09/12 11:52:30;;;;;;;9.05;4.93;;;37.70;50.10;;;;;;4995090;28;20046;-90
2023/09/12 11:54:56;;;;;;;6.28;4.40;;;38.00;49.70;;;;;;4994858;28;20030;-87
2023/09/12 11:57:22;;;;;;;5.40;4.25;;;38.20;49.50;;;;;;4994458;28;20049;-88
2023/09/12 11:59:48;;;;;;;7.00;4.45;;;38.40;49.20;;;;;;4993724;28;20384;-90
2023/09/12 12:02:14;;;;;;;7.60;5.15;;;38.70;49.10;;;;;;4995064;28;20058;-88
2023/09/12 12:04:40;;;;;;;6.95;5.35;;;38.90;48.70;;;;;;4994812;28;20124;-85
2023/09/12 12:07:07;;;;;;;6.60;4.93;;;38.70;47.70;;;;;;4994117;28;20023;-89
2023/09/12 12:09:34;;;;;;;6.97;5.18;;;38.10;47.40;;;;;;4993821;28;20026;-89
2023/09/12 12:12:14;;;;;;;8.73;6.45;;;37.40;47.40;;;;;;4994525;28;20093;-89
2023/09/12 12:14:40;;;;;;;7.15;5.18;;;36.70;48.00;;;;;;4992766;28;20030;-85
2023/09/12 12:17:11;;;;;;;8.05;6.00;;;36.50;48.30;;;;;;4993275;28;20391;-90
2023/09/12 12:19:44;;;;;;;8.25;4.95;;;36.20;48.20;;;;;;5009428;28;20024;-87
2023/09/12 12:22:10;;;;;;;11.00;5.28;;;35.80;48.60;;;;;;5010030;28;20050;-91
2023/09/12 12:24:45;;;;;;;7.65;5.53;;;35.40;49.20;;;;;;4993456;28;20081;-89
2023/09/12 12:27:11;;;;;;;6.47;3.78;;;35.30;49.50;;;;;;4994338;28;20025;-87
2023/09/12 12:29:39;;;;;;;6.38;4.45;;;35.50;49.80;;;;;;4994231;28;20117;-88